Time;durP1;ratioP1;P1;durP2;ratioP2;P2;SDS_P1;SDS_P2;PMS_P1;PMS_P2;Temp;Humidity;BMP_temperature;BMP_pressure;BME280_temperature;BME280_humidity;BME280_pressure;Samples;Min_cycle;Max_cycle;Signal;HPM_P1;HPM_P2
2024/03/14 00:00:23;;;;;;;22.75;12.48;;;;;;;11.05;65.09;100171.19;5096149;28;20058;-48
2024/03/14 00:02:52;;;;;;;24.58;13.18;;;;;;;11.18;64.46;100166.75;5095625;28;20062;-50
2024/03/14 00:05:21;;;;;;;25.10;12.73;;;;;;;11.22;64.42;100168.28;5096013;28;20072;-48
2024/03/14 00:07:49;;;;;;;26.17;12.70;;;;;;;11.18;64.89;100164.94;5095806;28;20147;-49
2024/03/14 00:10:18;;;;;;;23.60;12.65;;;;;;;11.06;64.76;100164.88;5095841;28;20075;-49
2024/03/14 00:12:46;;;;;;;27.33;13.15;;;;;;;11.08;65.32;100163.81;5095499;28;20176;-46
2024/03/14 00:15:15;;;;;;;21.75;12.70;;;;;;;11.07;65.31;100159.44;5095645;28;20100;-46
2024/03/14 00:17:45;;;;;;;23.67;12.95;;;;;;;11.05;65.50;100160.50;5095915;28;20063;-47
2024/03/14 00:20:14;;;;;;;23.20;12.65;;;;;;;10.98;65.45;100164.50;5095683;28;20046;-45
2024/03/14 00:22:42;;;;;;;23.13;13.13;;;;;;;10.97;65.46;100165.47;5095348;28;20503;-46
2024/03/14 00:25:11;;;;;;;19.90;12.57;;;;;;;11.04;66.01;100162.31;5095073;28;20075;-47
2024/03/14 00:27:42;;;;;;;24.80;12.73;;;;;;;10.77;66.33;100167.56;5095635;28;20051;-45
2024/03/14 00:30:11;;;;;;;25.00;13.18;;;;;;;10.79;66.58;100167.47;5095956;28;20056;-48
2024/03/14 00:32:39;;;;;;;26.05;13.13;;;;;;;10.78;66.18;100166.63;5095633;28;20055;-48
2024/03/14 00:35:08;;;;;;;21.83;12.45;;;;;;;10.78;66.10;100163.94;5095363;28;20059;-49
2024/03/14 00:37:37;;;;;;;23.52;13.05;;;;;;;10.63;65.93;100164.06;5094636;28;20051;-51
2024/03/14 00:40:11;;;;;;;24.10;12.77;;;;;;;10.80;66.40;100161.16;5095476;28;20079;-46
2024/03/14 00:42:44;;;;;;;22.42;12.35;;;;;;;10.78;65.99;100168.41;5095774;28;20134;-47
2024/03/14 00:45:14;;;;;;;21.92;12.48;;;;;;;10.93;65.68;100155.94;5095428;28;20129;-49
2024/03/14 00:47:43;;;;;;;24.02;12.23;;;;;;;10.91;64.89;100155.19;5095723;28;20047;-49
2024/03/14 00:50:13;;;;;;;23.02;12.27;;;;;;;10.99;65.29;100155.53;5095192;28;20123;-48
2024/03/14 00:52:41;;;;;;;21.90;11.60;;;;;;;11.04;65.24;100156.97;5094742;28;20040;-49
2024/03/14 00:55:09;;;;;;;22.15;12.48;;;;;;;10.99;64.56;100166.22;5095219;28;20679;-48
2024/03/14 00:57:39;;;;;;;21.65;12.13;;;;;;;11.08;64.71;100157.63;5095675;28;20044;-47
2024/03/14 01:00:11;;;;;;;24.10;12.38;;;;;;;10.97;63.63;100154.78;5095425;28;20052;-48
2024/03/14 01:02:43;;;;;;;20.60;11.48;;;;;;;11.03;63.53;100143.72;5096183;28;20455;-51
2024/03/14 01:05:12;;;;;;;21.27;11.75;;;;;;;10.84;63.48;100147.56;5103043;28;20054;-47
2024/03/14 01:07:41;;;;;;;22.27;12.13;;;;;;;11.04;64.34;100138.28;5104071;28;20047;-47
2024/03/14 01:10:09;;;;;;;21.00;11.93;;;;;;;11.05;64.81;100144.47;5102528;28;20052;-48
2024/03/14 01:12:39;;;;;;;22.42;11.77;;;;;;;11.11;64.30;100141.44;5097690;28;20529;-48
2024/03/14 01:15:07;;;;;;;23.13;12.45;;;;;;;10.96;63.15;100145.91;5094586;28;20107;-46
2024/03/14 01:17:35;;;;;;;22.30;11.93;;;;;;;10.78;63.21;100147.94;5093884;28;20043;-45
2024/03/14 01:20:09;;;;;;;18.10;10.98;;;;;;;10.41;63.64;100152.00;5094726;28;20051;-47
2024/03/14 01:22:39;;;;;;;18.80;11.48;;;;;;;10.41;64.35;100151.16;5095599;28;20051;-48
2024/03/14 01:25:07;;;;;;;23.23;11.88;;;;;;;10.45;64.30;100147.38;5094767;28;20600;-47
2024/03/14 01:27:36;;;;;;;22.90;11.73;;;;;;;10.48;64.36;100149.84;5094111;28;20043;-49
2024/03/14 01:30:10;;;;;;;20.90;11.50;;;;;;;10.33;65.07;100154.31;5093850;28;20130;-49
2024/03/14 01:32:39;;;;;;;20.88;12.13;;;;;;;10.40;64.93;100154.78;5095240;28;20040;-47
2024/03/14 01:35:08;;;;;;;22.55;12.35;;;;;;;10.43;64.70;100151.94;5094075;28;20054;-45
2024/03/14 01:37:36;;;;;;;22.25;11.32;;;;;;;10.24;65.11;100149.53;5093864;28;20104;-48
2024/03/14 01:40:06;;;;;;;24.30;12.27;;;;;;;10.08;65.45;100156.69;5094040;28;20093;-49
2024/03/14 01:42:34;;;;;;;20.52;11.85;;;;;;;10.15;65.56;100150.91;5093974;28;20395;-46
2024/03/14 01:45:04;;;;;;;22.15;12.20;;;;;;;10.11;66.07;100144.03;5094013;28;20052;-48
2024/03/14 01:47:33;;;;;;;21.45;11.90;;;;;;;10.01;66.18;100146.38;5094184;28;20122;-46
2024/03/14 01:50:05;;;;;;;21.83;12.48;;;;;;;10.16;65.92;100141.97;5093754;28;20096;-49
2024/03/14 01:52:35;;;;;;;21.40;11.73;;;;;;;10.28;65.85;100138.59;5094212;28;20100;-47
2024/03/14 01:55:03;;;;;;;23.05;12.88;;;;;;;10.18;66.25;100137.38;5093639;28;20467;-46
2024/03/14 01:57:32;;;;;;;23.73;12.77;;;;;;;10.28;65.63;100141.25;5093802;28;20122;-47
2024/03/14 02:00:00;;;;;;;22.42;12.27;;;;;;;10.40;66.25;100142.31;5093780;28;20101;-47
2024/03/14 02:02:29;;;;;;;23.50;12.73;;;;;;;10.31;65.96;100138.38;5093827;28;20088;-47
2024/03/14 02:04:58;;;;;;;24.55;13.10;;;;;;;10.29;66.03;100134.97;5093123;28;20048;-47
2024/03/14 02:07:26;;;;;;;21.70;12.32;;;;;;;9.91;66.27;100128.38;5093485;28;20066;-45
2024/03/14 02:09:55;;;;;;;26.55;13.48;;;;;;;9.91;67.20;100125.72;5093566;28;20061;-46
2024/03/14 02:12:23;;;;;;;25.88;13.30;;;;;;;9.90;67.54;100124.84;5093190;28;20052;-47
2024/03/14 02:14:52;;;;;;;24.55;13.50;;;;;;;9.87;67.35;100129.53;5077299;28;20060;-46
2024/03/14 02:17:20;;;;;;;24.52;13.05;;;;;;;9.68;68.05;100127.06;5093604;28;20044;-54
2024/03/14 02:19:48;;;;;;;22.65;12.80;;;;;;;9.71;68.13;100129.56;5094553;28;20126;-47
2024/03/14 02:22:20;;;;;;;26.52;13.82;;;;;;;9.52;68.28;100129.75;5093869;28;20043;-49
2024/03/14 02:24:51;;;;;;;23.65;12.35;;;;;;;9.39;69.27;100131.44;5093882;28;20052;-51
2024/03/14 02:27:19;;;;;;;25.30;13.45;;;;;;;9.48;69.43;100130.91;5094199;28;20047;-48
2024/03/14 02:29:48;;;;;;;26.88;13.70;;;;;;;9.40;68.72;100134.00;5093720;28;20044;-46
2024/03/14 02:32:18;;;;;;;25.35;14.10;;;;;;;9.31;68.91;100133.66;5093637;28;20127;-48
2024/03/14 02:34:46;;;;;;;24.77;13.20;;;;;;;9.17;69.72;100135.31;5093440;28;20480;-48
2024/03/14 02:37:14;;;;;;;25.27;13.45;;;;;;;9.38;69.53;100135.88;5093564;28;20047;-49
2024/03/14 02:39:44;;;;;;;25.88;13.70;;;;;;;9.12;70.10;100132.03;5093380;28;20048;-48
2024/03/14 02:42:12;;;;;;;25.85;13.43;;;;;;;9.15;70.48;100137.16;5093698;28;20138;-51
2024/03/14 02:44:41;;;;;;;25.85;13.73;;;;;;;9.08;70.57;100137.63;5093303;28;20036;-47
2024/03/14 02:47:09;;;;;;;25.45;12.73;;;;;;;8.77;71.37;100138.44;5093261;28;20035;-45
2024/03/14 02:49:39;;;;;;;26.77;13.48;;;;;;;9.04;71.12;100141.38;5092998;28;20126;-47
2024/03/14 02:52:08;;;;;;;22.35;12.73;;;;;;;8.90;71.52;100139.50;5093779;28;20050;-49
2024/03/14 02:54:36;;;;;;;25.08;13.70;;;;;;;8.99;70.98;100141.66;5076520;28;20056;-47
2024/03/14 02:57:04;;;;;;;27.23;13.27;;;;;;;9.09;70.85;100142.84;5093155;28;20096;-46
2024/03/14 02:59:33;;;;;;;23.38;12.82;;;;;;;8.93;70.67;100146.44;5093232;28;20047;-45
2024/03/14 03:02:01;;;;;;;26.58;13.55;;;;;;;8.82;71.33;100147.03;5092944;28;20043;-47
2024/03/14 03:04:30;;;;;;;23.65;13.15;;;;;;;8.90;70.94;100144.81;5092873;28;20476;-48
2024/03/14 03:07:05;;;;;;;26.23;13.60;;;;;;;8.90;71.16;100150.13;5092986;28;20039;-48
2024/03/14 03:09:37;;;;;;;25.27;13.00;;;;;;;9.16;71.38;100146.88;5093852;28;20504;-47
2024/03/14 03:12:06;;;;;;;25.77;13.20;;;;;;;9.15;70.52;100141.63;5093310;28;20048;-48
2024/03/14 03:14:36;;;;;;;23.08;13.55;;;;;;;9.07;70.40;100147.41;5092899;28;20052;-47
2024/03/14 03:17:05;;;;;;;26.33;13.20;;;;;;;9.04;71.18;100150.22;5096420;28;20131;-47
2024/03/14 03:19:36;;;;;;;25.20;13.25;;;;;;;8.86;70.77;100153.88;5096734;28;20054;-47
2024/03/14 03:22:06;;;;;;;26.38;13.05;;;;;;;8.74;71.47;100146.59;5097143;28;20043;-46
2024/03/14 03:24:33;;;;;;;23.65;12.93;;;;;;;9.04;71.10;100147.56;5096623;28;20071;-45
2024/03/14 03:27:13;;;;;;;24.65;12.98;;;;;;;9.16;70.48;100146.88;5096349;28;20503;-46
2024/03/14 03:29:42;;;;;;;23.33;12.23;;;;;;;9.05;70.45;100149.28;5098432;28;20051;-45
2024/03/14 03:32:09;;;;;;;28.35;13.88;;;;;;;8.95;70.37;100145.41;5096516;28;20048;-46
2024/03/14 03:34:38;;;;;;;25.23;13.30;;;;;;;8.89;71.02;100151.09;5096321;28;20485;-48
2024/03/14 03:37:05;;;;;;;25.23;13.52;;;;;;;8.69;71.11;100151.31;5096307;28;20041;-46
2024/03/14 03:39:34;;;;;;;24.55;13.27;;;;;;;8.76;71.58;100156.19;5096113;28;20088;-48
2024/03/14 03:42:02;;;;;;;25.60;13.43;;;;;;;8.80;71.66;100156.91;5096485;28;20052;-48
2024/03/14 03:44:30;;;;;;;24.83;13.65;;;;;;;8.63;71.23;100151.63;5096398;28;20112;-48
2024/03/14 03:46:58;;;;;;;26.25;13.38;;;;;;;8.59;71.86;100158.91;5096257;28;20043;-47
2024/03/14 03:49:27;;;;;;;25.15;13.32;;;;;;;8.56;72.00;100153.75;5096099;28;20047;-48
2024/03/14 03:51:55;;;;;;;26.88;13.13;;;;;;;8.36;72.51;100161.91;5096476;28;20071;-48
2024/03/14 03:54:24;;;;;;;23.88;13.63;;;;;;;8.41;72.78;100166.06;5096033;28;20521;-47
2024/03/14 03:56:54;;;;;;;26.85;14.65;;;;;;;8.61;73.29;100159.69;5096368;28;20100;-46
2024/03/14 03:59:23;;;;;;;26.98;13.13;;;;;;;8.57;72.33;100158.97;5096835;28;20051;-49
2024/03/14 04:01:50;;;;;;;26.60;13.75;;;;;;;8.69;72.40;100156.63;5096432;28;20040;-47
2024/03/14 04:04:18;;;;;;;26.88;13.98;;;;;;;8.76;72.21;100158.00;5096325;28;20469;-48
2024/03/14 04:06:47;;;;;;;30.23;14.35;;;;;;;8.71;72.08;100160.06;5095830;28;20052;-48
2024/03/14 04:09:16;;;;;;;24.92;13.38;;;;;;;8.53;72.49;100172.53;5095811;28;20047;-49
2024/03/14 04:11:43;;;;;;;27.70;14.32;;;;;;;8.33;73.04;100166.44;5095779;28;20040;-48
2024/03/14 04:14:12;;;;;;;27.60;14.40;;;;;;;8.57;73.01;100168.75;5095400;28;20074;-48
2024/03/14 04:16:39;;;;;;;33.28;15.77;;;;;;;8.04;74.08;100169.72;5095545;28;20058;-46
2024/03/14 04:19:07;;;;;;;29.77;16.48;;;;;;;8.26;73.37;100177.44;5095181;28;20475;-48
2024/03/14 04:21:36;;;;;;;33.97;16.33;;;;;;;8.00;74.67;100174.31;5095208;28;20052;-48
2024/03/14 04:24:06;;;;;;;31.70;16.15;;;;;;;8.09;74.84;100182.75;5095519;28;20078;-45
2024/03/14 04:26:34;;;;;;;32.00;16.50;;;;;;;8.25;74.41;100184.56;5094925;28;20048;-47
2024/03/14 04:29:03;;;;;;;29.40;14.75;;;;;;;8.10;74.73;100190.66;5095134;28;20052;-48
2024/03/14 04:31:31;;;;;;;29.40;15.27;;;;;;;7.86;75.80;100190.09;5095111;28;20044;-46
2024/03/14 04:34:00;;;;;;;29.10;14.98;;;;;;;7.94;75.55;100185.28;5094934;28;20051;-46
2024/03/14 04:36:30;;;;;;;29.95;15.27;;;;;;;8.05;75.54;100192.69;5095277;28;20051;-45
2024/03/14 04:38:58;;;;;;;27.30;14.73;;;;;;;7.76;76.89;100188.84;5095438;28;20050;-47
2024/03/14 04:41:28;;;;;;;25.17;13.52;;;;;;;7.73;77.15;100197.84;5094893;28;20050;-46
2024/03/14 04:43:56;;;;;;;27.95;14.27;;;;;;;7.60;77.93;100195.84;5094881;28;20062;-46
2024/03/14 04:46:25;;;;;;;26.25;14.23;;;;;;;7.59;78.03;100194.13;5094698;28;20047;-48
2024/03/14 04:48:53;;;;;;;30.45;15.40;;;;;;;7.64;78.50;100192.13;5095030;28;20143;-45
2024/03/14 04:51:22;;;;;;;29.45;15.07;;;;;;;7.54;78.21;100196.16;5094755;28;20609;-48
2024/03/14 04:53:50;;;;;;;28.23;14.25;;;;;;;7.51;78.30;100190.97;5094839;28;20048;-46
2024/03/14 04:56:21;;;;;;;29.65;14.35;;;;;;;7.51;78.39;100193.63;5094616;28;20047;-48
2024/03/14 04:58:50;;;;;;;24.92;14.07;;;;;;;7.56;78.32;100191.63;5094624;28;20048;-50
2024/03/14 05:01:19;;;;;;;24.63;13.23;;;;;;;7.62;78.65;100193.97;5094235;28;20050;-46
2024/03/14 05:03:47;;;;;;;29.98;14.57;;;;;;;7.79;77.72;100199.31;5094547;28;20048;-48
2024/03/14 05:06:16;;;;;;;26.25;13.88;;;;;;;7.68;77.56;100198.97;5094511;28;20071;-50
2024/03/14 05:08:45;;;;;;;26.58;14.38;;;;;;;7.54;78.57;100193.50;5094143;28;20048;-47
2024/03/14 05:11:14;;;;;;;26.30;14.20;;;;;;;7.43;78.64;100194.88;5094366;28;20047;-48
2024/03/14 05:13:43;;;;;;;30.77;15.13;;;;;;;7.29;79.52;100192.00;5093968;28;20058;-47
2024/03/14 05:16:11;;;;;;;32.05;16.55;;;;;;;7.38;79.27;100196.88;5094104;28;20047;-47
2024/03/14 05:18:40;;;;;;;33.85;15.93;;;;;;;7.48;79.32;100197.31;5094323;28;20147;-46
2024/03/14 05:21:10;;;;;;;31.52;16.30;;;;;;;7.65;78.54;100200.00;5094181;28;20043;-46
2024/03/14 05:23:39;;;;;;;28.00;14.45;;;;;;;7.67;77.87;100203.44;5094364;28;20437;-47
2024/03/14 05:26:08;;;;;;;28.23;14.68;;;;;;;7.56;78.00;100204.91;5094331;28;20413;-51
2024/03/14 05:28:36;;;;;;;32.78;15.23;;;;;;;7.81;77.88;100213.34;5094178;28;20134;-47
2024/03/14 05:31:05;;;;;;;28.13;14.45;;;;;;;7.74;77.74;100210.16;5094166;28;20051;-46
2024/03/14 05:33:35;;;;;;;28.90;14.35;;;;;;;7.50;78.38;100226.41;5094343;28;20047;-47
2024/03/14 05:36:04;;;;;;;27.63;14.52;;;;;;;7.45;79.15;100213.38;5094266;28;20523;-48
2024/03/14 05:38:33;;;;;;;28.55;14.00;;;;;;;7.64;78.26;100226.63;5093472;28;20468;-46
2024/03/14 05:41:01;;;;;;;31.05;14.73;;;;;;;7.51;78.84;100228.13;5093634;28;20090;-47
2024/03/14 05:43:29;;;;;;;27.75;14.02;;;;;;;7.71;78.37;100220.91;5094286;28;20044;-46
2024/03/14 05:45:58;;;;;;;30.48;14.82;;;;;;;7.97;77.98;100222.31;5093941;28;20124;-45
2024/03/14 05:48:27;;;;;;;29.42;14.13;;;;;;;7.89;77.39;100223.63;5094065;28;20052;-45
2024/03/14 05:50:57;;;;;;;27.98;14.93;;;;;;;7.75;78.12;100227.81;5093781;28;20096;-46
2024/03/14 05:53:28;;;;;;;28.98;15.18;;;;;;;7.95;77.77;100229.50;5093920;28;20138;-45
2024/03/14 05:55:58;;;;;;;25.17;14.13;;;;;;;7.99;76.48;100236.34;5094542;28;20084;-46
2024/03/14 05:58:28;;;;;;;30.73;15.30;;;;;;;7.86;77.06;100235.25;5094291;28;20051;-45
2024/03/14 06:00:56;;;;;;;36.22;15.80;;;;;;;8.03;76.19;100231.78;5093829;28;20500;-47
2024/03/14 06:03:25;;;;;;;30.80;16.55;;;;;;;8.04;76.38;100244.97;5096660;28;20147;-48
2024/03/14 06:05:54;;;;;;;38.13;18.88;;;;;;;8.30;76.63;100240.16;5094861;28;20087;-47
2024/03/14 06:08:22;;;;;;;31.48;17.10;;;;;;;8.52;75.98;100240.78;5093408;28;20051;-48
2024/03/14 06:10:51;;;;;;;32.08;15.63;;;;;;;8.58;74.98;100243.13;5093500;28;20100;-45
2024/03/14 06:13:19;;;;;;;30.55;15.57;;;;;;;8.69;74.33;100252.38;5093356;28;20058;-47
2024/03/14 06:15:48;;;;;;;31.45;15.20;;;;;;;8.75;73.82;100247.56;5093378;28;20047;-49
2024/03/14 06:18:19;;;;;;;33.40;15.90;;;;;;;8.85;74.51;100247.94;5093386;28;20050;-47
2024/03/14 06:20:47;;;;;;;30.83;16.40;;;;;;;9.00;73.61;100241.81;5093766;28;20123;-49
2024/03/14 06:23:16;;;;;;;30.13;15.77;;;;;;;9.32;73.29;100242.69;5093435;28;20051;-48
2024/03/14 06:25:44;;;;;;;29.58;16.00;;;;;;;9.44;73.30;100251.81;5093369;28;20059;-48
2024/03/14 06:28:12;;;;;;;30.65;15.63;;;;;;;9.31;72.18;100253.44;5092533;28;20047;-50
2024/03/14 06:30:41;;;;;;;31.00;15.40;;;;;;;9.37;71.17;100261.09;5092137;28;20437;-48
2024/03/14 06:33:09;;;;;;;32.33;16.27;;;;;;;9.50;70.53;100255.94;5093105;28;20458;-47
2024/03/14 06:35:38;;;;;;;31.38;16.10;;;;;;;9.51;69.89;100257.66;5092988;28;20128;-48
2024/03/14 06:38:06;;;;;;;32.65;16.55;;;;;;;9.67;69.65;100259.38;5093060;28;20469;-48
2024/03/14 06:40:34;;;;;;;30.92;16.10;;;;;;;9.82;69.10;100260.31;5093057;28;20039;-49
2024/03/14 06:43:06;;;;;;;29.63;15.55;;;;;;;9.85;69.24;100252.16;5092861;28;20054;-47
2024/03/14 06:45:34;;;;;;;27.92;13.93;;;;;;;9.67;68.34;100264.72;5093293;28;20059;-48
2024/03/14 06:48:03;;;;;;;26.13;14.65;;;;;;;9.68;69.63;100269.09;5092962;28;20484;-50
2024/03/14 06:50:32;;;;;;;30.48;15.48;;;;;;;9.55;69.52;100260.06;5095746;28;20403;-49
2024/03/14 06:53:00;;;;;;;26.50;14.98;;;;;;;9.20;69.89;100271.81;5097130;28;20083;-48
2024/03/14 06:55:30;;;;;;;28.88;14.60;;;;;;;9.21;70.18;100278.84;5097111;28;20043;-46
2024/03/14 06:57:59;;;;;;;30.58;14.57;;;;;;;9.78;69.58;100268.56;5097017;28;20057;-47
2024/03/14 07:00:29;;;;;;;28.50;15.05;;;;;;;9.82;67.91;100272.78;5096864;28;20403;-50
2024/03/14 07:02:58;;;;;;;27.40;14.43;;;;;;;10.08;68.12;100280.16;5097033;28;20516;-48
2024/03/14 07:05:28;;;;;;;26.42;13.48;;;;;;;9.98;67.30;100278.97;5096835;28;20044;-50
2024/03/14 07:07:57;;;;;;;25.05;13.10;;;;;;;10.30;66.86;100280.63;5096715;28;20095;-45
2024/03/14 07:10:26;;;;;;;25.75;12.55;;;;;;;10.32;66.17;100278.72;5096846;28;20044;-48
2024/03/14 07:12:57;;;;;;;22.25;12.80;;;;;;;10.37;65.76;100277.63;5096186;28;20055;-47
2024/03/14 07:15:26;;;;;;;23.92;12.57;;;;;;;10.06;64.81;100281.19;5097074;28;20047;-47
2024/03/14 07:17:58;;;;;;;23.52;13.40;;;;;;;10.36;66.07;100278.56;5096884;28;20040;-46
2024/03/14 07:20:33;;;;;;;23.67;12.95;;;;;;;10.32;65.00;100281.41;5097351;28;20047;-48
2024/03/14 07:23:02;;;;;;;26.42;13.65;;;;;;;10.19;65.56;100282.19;5097386;28;20051;-48
2024/03/14 07:25:30;;;;;;;27.80;13.27;;;;;;;10.49;66.08;100284.91;5095932;28;20070;-48
2024/03/14 07:27:59;;;;;;;21.75;12.10;;;;;;;10.83;65.21;100289.94;5096631;28;20104;-47
2024/03/14 07:30:30;;;;;;;29.88;13.13;;;;;;;10.91;63.52;100291.28;5096834;28;20104;-47
2024/03/14 07:33:00;;;;;;;24.70;12.52;;;;;;;11.00;63.29;100296.03;5097209;28;20048;-47
2024/03/14 07:35:29;;;;;;;24.25;13.65;;;;;;;10.93;63.17;100297.38;5096470;28;20054;-46
2024/03/14 07:37:58;;;;;;;21.42;12.40;;;;;;;10.45;63.23;100296.69;5096066;28;20046;-48
2024/03/14 07:40:32;;;;;;;27.45;13.18;;;;;;;10.63;64.57;100303.63;5096345;28;20051;-45
2024/03/14 07:43:01;;;;;;;23.85;13.20;;;;;;;10.85;64.67;100304.03;5096968;28;20472;-47
2024/03/14 07:45:30;;;;;;;24.75;13.10;;;;;;;10.96;63.07;100307.88;5095941;28;20406;-46
2024/03/14 07:47:59;;;;;;;22.67;12.55;;;;;;;11.03;62.03;100306.53;5095771;28;20079;-48
2024/03/14 07:50:27;;;;;;;26.60;13.75;;;;;;;10.71;63.40;100308.47;5096024;28;20514;-48
2024/03/14 07:52:56;;;;;;;25.52;14.23;;;;;;;11.17;63.04;100302.06;5096271;28;20130;-50
2024/03/14 07:55:25;;;;;;;28.38;13.50;;;;;;;11.46;62.90;100310.94;5096182;28;20044;-47
2024/03/14 07:57:53;;;;;;;24.80;13.45;;;;;;;11.58;61.90;100308.44;5095915;28;20051;-46
2024/03/14 08:00:23;;;;;;;23.60;12.80;;;;;;;11.46;60.85;100313.59;5095583;28;20140;-49
2024/03/14 08:02:55;;;;;;;24.52;13.32;;;;;;;11.43;59.93;100310.28;5095278;28;20043;-45
2024/03/14 08:05:31;;;;;;;25.83;13.60;;;;;;;11.51;59.95;100317.81;5096718;28;20134;-49
2024/03/14 08:08:01;;;;;;;25.38;13.43;;;;;;;11.35;59.10;100316.09;5096925;28;20057;-47
2024/03/14 08:10:47;;;;;;;22.42;11.65;;;;;;;11.07;58.88;100316.94;5098140;28;20061;-49
2024/03/14 08:13:20;;;;;;;22.58;12.85;;;;;;;11.28;59.68;100314.75;5095540;28;20519;-49
2024/03/14 08:15:54;;;;;;;26.17;12.77;;;;;;;11.64;59.22;100321.41;5096480;28;20424;-47
2024/03/14 08:18:24;;;;;;;22.67;13.35;;;;;;;11.74;58.33;100325.22;5096153;28;20459;-47
2024/03/14 08:20:57;;;;;;;22.80;12.60;;;;;;;11.72;58.15;100321.78;5095433;28;20043;-46
2024/03/14 08:23:27;;;;;;;22.00;12.40;;;;;;;11.82;57.53;100325.63;5096393;28;20392;-48
2024/03/14 08:25:56;;;;;;;25.83;12.85;;;;;;;12.08;57.33;100318.59;5095946;28;20044;-58
2024/03/14 08:28:24;;;;;;;21.02;12.68;;;;;;;12.13;57.83;100320.94;5096115;28;20083;-48
2024/03/14 08:30:53;;;;;;;24.13;13.55;;;;;;;12.00;57.15;100332.47;5095823;28;20127;-50
2024/03/14 08:33:23;;;;;;;23.27;13.07;;;;;;;12.22;56.96;100325.69;5095085;28;20055;-45
2024/03/14 08:35:53;;;;;;;22.95;12.70;;;;;;;11.82;56.08;100333.63;5095678;28;20100;-48
2024/03/14 08:38:22;;;;;;;23.42;13.02;;;;;;;11.93;57.03;100332.94;5095178;28;20105;-49
2024/03/14 08:40:51;;;;;;;22.10;11.68;;;;;;;12.07;56.15;100332.06;5093163;28;20128;-50
2024/03/14 08:43:20;;;;;;;56.13;16.33;;;;;;;12.32;55.80;100334.84;5095212;28;20047;-47
2024/03/14 08:45:50;;;;;;;30.15;13.25;;;;;;;12.32;55.42;100332.16;5094913;28;20506;-49
2024/03/14 08:48:21;;;;;;;25.35;12.68;;;;;;;12.21;55.30;100337.34;5095464;28;20188;-46
2024/03/14 08:50:50;;;;;;;22.77;12.73;;;;;;;12.03;55.66;100328.72;5095502;28;20183;-47
2024/03/14 08:53:18;;;;;;;24.77;13.60;;;;;;;11.86;55.54;100335.13;5094919;28;20043;-48
2024/03/14 08:55:52;;;;;;;24.98;13.35;;;;;;;12.02;56.11;100330.53;5094814;28;20092;-47
2024/03/14 08:58:21;;;;;;;27.80;13.15;;;;;;;12.01;55.46;100328.81;5095824;28;20439;-46
2024/03/14 09:00:50;;;;;;;76.95;17.70;;;;;;;12.24;54.91;100337.16;5094517;28;20077;-51
2024/03/14 09:03:19;;;;;;;21.73;12.68;;;;;;;12.05;54.52;100337.50;5094748;28;20048;-47
2024/03/14 09:05:48;;;;;;;24.15;12.30;;;;;;;12.16;54.23;100336.78;5094631;28;20381;-48
2024/03/14 09:08:18;;;;;;;22.83;11.43;;;;;;;12.35;54.19;100337.28;5094996;28;20134;-46
2024/03/14 09:10:47;;;;;;;25.40;11.95;;;;;;;12.39;53.10;100338.81;5094699;28;20407;-50
2024/03/14 09:13:15;;;;;;;19.88;11.63;;;;;;;12.66;52.62;100337.94;5093427;28;20139;-47
2024/03/14 09:15:44;;;;;;;25.02;11.15;;;;;;;13.02;52.78;100330.06;5094304;28;20043;-47
2024/03/14 09:18:14;;;;;;;22.25;12.02;;;;;;;13.07;51.85;100330.63;5094021;28;20100;-47
2024/03/14 09:20:48;;;;;;;22.85;11.57;;;;;;;13.36;52.19;100331.28;5094695;28;20097;-50
2024/03/14 09:23:19;;;;;;;21.27;11.25;;;;;;;13.57;52.13;100328.06;5094976;28;20047;-49
2024/03/14 09:25:48;;;;;;;18.33;10.95;;;;;;;13.76;51.67;100323.09;5094182;28;20051;-48
2024/03/14 09:28:16;;;;;;;22.42;11.30;;;;;;;13.94;51.44;100326.25;5093837;28;20040;-47
2024/03/14 09:30:45;;;;;;;19.60;10.82;;;;;;;13.77;49.40;100327.47;5093844;28;20053;-48
2024/03/14 09:33:13;;;;;;;18.92;11.07;;;;;;;13.36;48.76;100330.44;5093715;28;20070;-47
2024/03/14 09:35:45;;;;;;;17.67;11.02;;;;;;;13.44;49.38;100323.56;5093822;28;20044;-48
2024/03/14 09:38:15;;;;;;;20.53;12.20;;;;;;;13.65;48.96;100321.19;5094489;28;20468;-48
2024/03/14 09:40:43;;;;;;;19.42;10.98;;;;;;;13.44;49.44;100325.41;5094079;28;20048;-48
2024/03/14 09:43:14;;;;;;;16.63;9.85;;;;;;;13.46;48.68;100312.75;5094209;28;20047;-49
2024/03/14 09:45:44;;;;;;;18.58;11.10;;;;;;;13.21;48.26;100316.28;5093644;28;20485;-47
2024/03/14 09:48:13;;;;;;;19.45;10.45;;;;;;;13.62;49.14;100316.06;5093300;28;20059;-48
2024/03/14 09:50:41;;;;;;;21.90;10.73;;;;;;;13.75;48.36;100308.81;5093143;28;20525;-49
2024/03/14 09:53:14;;;;;;;16.83;10.27;;;;;;;13.90;48.16;100316.75;5092915;28;20521;-47
2024/03/14 09:55:43;;;;;;;17.03;9.70;;;;;;;14.11;47.51;100314.31;5095112;28;20044;-49
2024/03/14 09:58:14;;;;;;;24.75;10.70;;;;;;;13.91;47.34;100310.41;5093559;28;20571;-48
2024/03/14 10:00:43;;;;;;;17.85;10.10;;;;;;;13.96;48.29;100308.22;5093555;28;20376;-50
2024/03/14 10:03:13;;;;;;;17.38;10.38;;;;;;;14.24;47.23;100312.41;5093067;28;20051;-48
2024/03/14 10:05:41;;;;;;;20.05;9.85;;;;;;;14.25;47.19;100306.94;5093058;28;20541;-49
2024/03/14 10:08:11;;;;;;;18.42;10.52;;;;;;;14.45;46.93;100305.47;5092635;28;20416;-49
2024/03/14 10:10:40;;;;;;;22.67;11.52;;;;;;;14.36;47.37;100306.13;5092759;28;20518;-50
2024/03/14 10:13:10;;;;;;;19.35;10.52;;;;;;;14.19;45.91;100310.09;5092661;28;20454;-46
2024/03/14 10:15:39;;;;;;;21.08;11.95;;;;;;;14.30;45.85;100307.47;5093648;28;20052;-48
2024/03/14 10:18:09;;;;;;;23.27;13.15;;;;;;;14.17;45.79;100300.41;5092902;28;20385;-47
2024/03/14 10:20:38;;;;;;;18.48;9.77;;;;;;;14.23;45.36;100295.47;5092709;28;20100;-49
2024/03/14 10:23:07;;;;;;;21.73;10.65;;;;;;;14.05;45.10;100302.19;5092612;28;20047;-48
2024/03/14 10:25:38;;;;;;;26.38;11.27;;;;;;;14.10;45.44;100294.69;5092312;28;20460;-48
2024/03/14 10:28:14;;;;;;;17.55;9.68;;;;;;;14.19;45.43;100304.72;5092754;28;20139;-48
2024/03/14 10:30:49;;;;;;;24.38;10.43;;;;;;;14.41;45.36;100295.06;5093526;28;20039;-48
2024/03/14 10:33:17;;;;;;;17.30;9.18;;;;;;;14.59;44.83;100291.88;5092565;28;20119;-51
2024/03/14 10:35:46;;;;;;;16.33;8.77;;;;;;;14.75;44.99;100285.31;5091959;28;20067;-49
2024/03/14 10:38:17;;;;;;;19.92;9.27;;;;;;;14.87;45.26;100287.94;5092585;28;20126;-47
2024/03/14 10:40:45;;;;;;;15.80;8.60;;;;;;;14.94;42.67;100285.59;5092519;28;20492;-49
2024/03/14 10:43:13;;;;;;;16.33;8.60;;;;;;;15.00;42.95;100284.28;5092121;28;20052;-49
2024/03/14 10:45:42;;;;;;;16.90;9.48;;;;;;;14.53;41.93;100286.09;5092557;28;20044;-52
2024/03/14 10:48:11;;;;;;;19.58;10.18;;;;;;;14.53;42.87;100275.38;5092435;28;20158;-47
2024/03/14 10:50:40;;;;;;;19.40;10.13;;;;;;;14.59;42.73;100282.97;5092501;28;20408;-46
2024/03/14 10:53:09;;;;;;;16.77;9.18;;;;;;;14.56;42.77;100283.19;5092742;28;20043;-51
2024/03/14 10:55:39;;;;;;;20.10;10.43;;;;;;;14.66;42.60;100281.50;5092304;28;20050;-49
2024/03/14 10:58:07;;;;;;;17.23;9.38;;;;;;;14.76;41.61;100278.97;5092369;28;20109;-48
2024/03/14 11:00:36;;;;;;;17.20;9.27;;;;;;;14.86;42.13;100271.91;5092172;28;20048;-49
2024/03/14 11:03:04;;;;;;;51.97;13.05;;;;;;;14.87;41.42;100265.59;5092283;28;20541;-47
2024/03/14 11:05:33;;;;;;;26.25;9.90;;;;;;;15.02;40.91;100266.22;5092640;28;20047;-50
2024/03/14 11:08:01;;;;;;;17.50;9.40;;;;;;;14.85;40.48;100260.31;5092847;28;20040;-48
2024/03/14 11:10:29;;;;;;;21.52;9.85;;;;;;;14.87;40.53;100252.16;5092190;28;20079;-48
2024/03/14 11:12:58;;;;;;;20.83;10.05;;;;;;;14.88;40.47;100251.19;5092325;28;20165;-51
2024/03/14 11:15:26;;;;;;;35.85;11.02;;;;;;;15.11;40.90;100254.75;5092241;28;20112;-49
2024/03/14 11:17:56;;;;;;;36.30;10.63;;;;;;;15.21;40.25;100250.34;5092579;28;20096;-46
2024/03/14 11:20:25;;;;;;;28.65;9.57;;;;;;;15.38;40.94;100254.38;5092571;28;20051;-48
2024/03/14 11:22:55;;;;;;;19.35;10.13;;;;;;;14.97;40.42;100250.47;5092466;28;20114;-46